Time,TemperatureF,DewpointF,PressureIn,WindDirection,WindDirectionDegrees,WindSpeedMPH,WindSpeedGustMPH,Humidity,HourlyPrecipIn,Conditions,Clouds,dailyrainin,SolarRadiationWatts/m^2,SoftwareType,DateUTC
2013-07-27 00:00:00,51.0,45.0,-100.00,ESE,104,0.0,4.0,82,-99.99,,,0.00,0.000000,,2013-07-27 06:00:00,
2013-07-27 01:00:00,50.0,-99.9,-100.00,North,-999,-999.0,-999.0,-999,-99.99,,,0.00,,,2013-07-27 07:00:00,
2013-07-27 02:00:00,49.0,-99.9,-100.00,North,-999,-999.0,-999.0,-999,-99.99,,,0.00,,,2013-07-27 08:00:00,
2013-07-27 02:53:00,49.0,-99.9,-100.00,North,-999,-999.0,-999.0,-999,-99.99,,,0.00,,,2013-07-27 08:53:00,
2013-07-27 03:00:00,49.0,46.0,-100.00,SE,136,0.0,1.0,91,-99.99,,,0.00,0.000000,,2013-07-27 09:00:00,
2013-07-27 04:00:00,47.0,45.0,-100.00,South,173,0.0,2.0,92,-99.99,,,-99.99,0.000000,,2013-07-27 10:00:00,
2013-07-27 05:00:00,49.0,46.0,-100.00,SSE,167,1.0,3.0,91,-99.99,,,0.00,0.000000,,2013-07-27 11:00:00,
2013-07-27 05:53:00,49.0,46.0,-100.00,SSE,167,1.0,3.0,91,-99.99,,,0.00,0.000000,,2013-07-27 11:53:00,
2013-07-27 06:00:00,49.0,46.0,-100.00,SSE,168,1.0,2.0,90,-99.99,,,0.00,0.000000,,2013-07-27 12:00:00,
2013-07-27 06:52:00,49.0,46.0,-100.00,SSE,168,1.0,2.0,90,-99.99,,,0.00,0.000000,,2013-07-27 12:52:00,
2013-07-27 07:00:00,49.0,46.0,-100.00,South,170,1.0,3.0,90,-99.99,,,0.00,8.600000,,2013-07-27 13:00:00,
2013-07-27 07:53:00,49.0,46.0,-100.00,South,170,1.0,3.0,90,-99.99,,,0.00,8.600000,,2013-07-27 13:53:00,
2013-07-27 08:00:00,53.0,49.0,-100.00,SSW,204,1.0,3.0,86,-99.99,,,0.00,28.700001,,2013-07-27 14:00:00,
2013-07-27 09:00:00,57.0,50.0,-100.00,West,268,1.0,4.0,75,-99.99,,,0.00,176.100006,,2013-07-27 15:00:00,
2013-07-27 10:00:00,59.0,48.0,-100.00,NW,306,1.0,4.0,67,-99.99,,,-99.99,308.000000,,2013-07-27 16:00:00,
2013-07-27 11:00:00,63.0,50.0,-100.00,WNW,300,1.0,3.0,62,-99.99,,,0.00,476.200012,,2013-07-27 17:00:00,
2013-07-27 11:54:00,63.0,50.0,-100.00,WNW,300,1.0,3.0,62,-99.99,,,0.00,476.200012,,2013-07-27 17:54:00,
2013-07-27 12:00:00,69.0,50.0,-100.00,NW,312,1.0,3.0,52,-99.99,,,0.00,858.400024,,2013-07-27 18:00:00,
2013-07-27 13:00:00,72.0,48.0,-100.00,NW,322,1.0,4.0,42,-99.99,,,0.00,968.900024,,2013-07-27 19:00:00,
2013-07-27 13:53:00,72.0,48.0,-100.00,NW,322,1.0,4.0,42,-99.99,,,0.00,968.900024,,2013-07-27 19:53:00,
2013-07-27 14:00:00,73.0,44.0,-100.00,NW,306,2.0,4.0,36,-99.99,,,-99.99,969.200012,,2013-07-27 20:00:00,
2013-07-27 15:00:00,74.0,44.0,-100.00,WNW,293,2.0,4.0,34,-99.99,,,0.00,958.799988,,2013-07-27 21:00:00,
2013-07-27 16:00:00,73.0,43.0,-100.00,NW,305,2.0,4.0,34,-99.99,,,0.00,789.099976,,2013-07-27 22:00:00,
2013-07-27 16:53:00,73.0,43.0,-100.00,NW,305,2.0,4.0,34,-99.99,,,0.00,789.099976,,2013-07-27 22:53:00,
2013-07-27 17:00:00,70.0,43.0,-100.00,NW,309,2.0,4.0,37,-99.99,,,0.00,60.700001,,2013-07-27 23:00:00,
2013-07-27 17:53:00,70.0,43.0,-100.00,NW,309,2.0,4.0,37,-99.99,,,0.00,60.700001,,2013-07-27 23:53:00,
2013-07-27 18:00:00,70.0,44.0,-100.00,NW,304,1.0,4.0,39,-99.99,,,0.00,92.500000,,2013-07-28 00:00:00,
2013-07-27 19:00:00,67.0,40.0,-100.00,WNW,300,1.0,4.0,37,-99.99,,,0.00,44.000000,,2013-07-28 01:00:00,
2013-07-27 19:53:00,67.0,40.0,-100.00,WNW,300,1.0,4.0,37,-99.99,,,0.00,44.000000,,2013-07-28 01:53:00,
2013-07-27 20:00:00,62.0,40.0,-100.00,WSW,251,0.0,2.0,44,-99.99,,,-99.99,17.400000,,2013-07-28 02:00:00,
2013-07-27 21:00:00,58.0,42.0,-100.00,SE,146,0.0,2.0,55,-99.99,,,0.00,0.000000,,2013-07-28 03:00:00,
2013-07-27 22:00:00,54.0,42.0,-100.00,ESE,115,0.0,1.0,63,-99.99,,,0.00,0.000000,,2013-07-28 04:00:00,
2013-07-27 23:00:00,54.0,44.0,-100.00,SSE,152,0.0,1.0,69,-99.99,,,0.00,0.000000,,2013-07-28 05:00:00,
2013-07-27 23:43:00,54.0,44.0,-100.00,SSE,152,0.0,1.0,69,-99.99,,,0.00,0.000000,,2013-07-28 05:43:00,